webcam facing south webcam facing south


webcam city Arachova webcam city Arachova


webcam city Arachova webcam city Arachova


Thunder radar blitzortung!


Rain radar rain snow radar


Visit our other sites:

Hotel Skamnos

Arachova Weather Station

Skamnos Weather Station

Skamnos Weather2

Arachova Weather2

WU Skamnos

WU Arachova


Other Weather Sites:

Parnassos Snow Forecast

Parnassos Snow Report

Kelaria 1950m

Kelaria 2240m

Fterolaka 2080m



No particular awareness of the weather is required.    There are no Weather-warnings

Nearby METAR Reports

  
1089 - Arachova Meteo, Greece
Distance from station: N 1km
Updated: 22-10-2017 11:19
Few Clouds
Few Clouds  
 Wind from calm
Wind: Calm
Temperature:  20°C
Dew Point:  8°C
Humidity:  46%
Barometer:  1014 hPa
Clouds:  Few Clouds
Visibility:  10 km
Cloud details:  Few Clouds 1433 m
2017/10/22 08:19 1089 220819Z 00000KT 9999 FEW047 20/08 Q1014
1155 - Arachova2, Greece
Distance from station: N 1km
Updated: 22-10-2017 11:19
Few Clouds
Few Clouds  
 Wind from S
Wind: S 4 km/h
Temperature:  20°C
Dew Point:  8°C
Humidity:  46%
Barometer:  1016 hPa
Clouds:  Few Clouds
Visibility:  10 km
Cloud details:  Few Clouds 1433 m
2017/10/22 08:19 1155 220819Z 18002KT 9999 FEW047 20/08 Q1016
1509 - Skamnos Parnassos 1250m, Greece
Distance from station: N 10km
Updated: 22-10-2017 11:19
Clear
Clear  
 Wind from S
Wind: S 4 km/h
Temperature:  16°C
Dew Point:  5°C
Humidity:  48%
Barometer:  1026 hPa
Clouds:  Clear
Visibility:  10 km
2017/10/22 08:19 1509 220819Z 18002KT 9999 SKC 16/05 Q1026
1250 - Parnassos Kelaria 1950m, Greece
Distance from station: NNE 10km
Updated: 22-10-2017 11:19
Clear
Clear  
 Wind from SW
Wind: SW 6 km/h
Temperature:  12°C
Dew Point:  3°C
Humidity:  54%
Barometer:  1019 hPa
Clouds:  Clear
Visibility:  10 km
2017/10/22 08:19 1250 220819Z 22503KT 9999 SKC 12/03 Q1019
1126 - Parnassos Fterolaka 2080m, Greece
Distance from station: NNE 10km
Updated: 21-03-2015 01:04
NOT Current
Few Clouds
Few Clouds  
 Wind from calm
Wind: Calm
Temperature:  -11°C
Dew Point:  -11°C
Humidity:  100%
Barometer:  1019 hPa
Clouds:  Few Clouds
Visibility:  6 km
Cloud details:  Few Clouds 305 m
2015/03/20 23:04 1126 202304Z 00000KT 6000 FEW010 M11/M11 Q1019
1382 - Parnassos Helcules 2240m, Greece
Distance from station: NNE 10km
Updated: 20-04-2015 13:20
NOT Current
Fog
Fog  
 Wind from SW
Wind: SW 7 km/h
Temperature:  1°C
Wind Chill:  -2°C
Dew Point:  1°C
Humidity:  100%
Barometer:  1009 hPa
Summary:  Fog
Visibility:  5 km
2015/04/20 10:20 1382 201020Z 22504KT 5000 FG 01/01 Q1009
1219 - Anrikyra, Greece
Distance from station: S 30km
Updated: 22-10-2017 11:19
Clear
Clear  
 Wind from SE
Wind: SE 2 km/h
Temperature:  22°C
Dew Point:  15°C
Humidity:  65%
Barometer:  1014 hPa
Clouds:  Clear
Visibility:  9 km
2017/10/22 08:19 1219 220819Z 13501KT 9000 SKC 22/15 Q1014
1015 - Galaxeidi, Greece
Distance from station: S 30km
Updated: 22-10-2017 11:18
Clear
Clear  
 Wind from SE
Wind: SE 7 km/h
Temperature:  23°C
Dew Point:  14°C
Humidity:  57%
Barometer:  1024 hPa
Clouds:  Clear
Visibility:  10 km
2017/10/22 08:18 1015 220818Z 13504KT 9999 SKC 23/14 Q1024
1088 - Amfikleia, Greece
Distance from station: N 20km
Updated: 19-10-2017 22:34
NOT Current
Few Clouds
Few Clouds  
 Wind from calm
Wind: Calm
Temperature:  14°C
Dew Point:  8°C
Humidity:  67%
Barometer:  1018 hPa
Clouds:  Few Clouds
Visibility:  9 km
Cloud details:  Few Clouds 732 m
2017/10/19 19:34 1088 191934Z 00000KT 9000 FEW024 14/08 Q1018
1337 - Polydroso, Greece
Distance from station: N 20km
Updated: 22-10-2017 11:19
Clear
Clear  
 Wind from calm
Wind: Calm
Temperature:  19°C
Dew Point:  12°C
Humidity:  64%
Barometer:  1015 hPa
Clouds:  Clear
Visibility:  9 km
2017/10/22 08:19 1337 220819Z 00000KT 9000 SKC 19/12 Q1015

Script developed by  Saratoga-weather.org Adapted for the template by  Weerstation Leuven